createdAt,value
2019-03-11T00:01:31.856Z,3.20
2019-03-11T00:04:03.569Z,2.50
2019-03-11T00:06:35.001Z,3.27
2019-03-11T00:09:07.278Z,2.90
2019-03-11T00:11:40.356Z,3.03
2019-03-11T00:14:11.840Z,3.07
2019-03-11T00:16:43.274Z,3.03
2019-03-11T00:19:14.788Z,2.60
2019-03-11T00:21:46.218Z,3.37
2019-03-11T00:24:17.692Z,3.97
2019-03-11T00:26:49.144Z,3.10
2019-03-11T00:29:20.598Z,4.00
2019-03-11T00:31:52.049Z,3.60
2019-03-11T00:34:23.512Z,3.47
2019-03-11T00:36:54.946Z,4.27
2019-03-11T00:39:26.410Z,3.67
2019-03-11T00:41:58.095Z,3.20
2019-03-11T00:44:29.636Z,4.00
2019-03-11T00:47:01.078Z,3.40
2019-03-11T00:49:32.536Z,4.57
2019-03-11T00:52:05.097Z,7.17
2019-03-11T00:54:36.651Z,7.27
2019-03-11T00:57:08.156Z,9.20
2019-03-11T00:59:39.703Z,7.30
2019-03-11T01:02:11.472Z,10.70
2019-03-11T01:04:43.008Z,9.10
2019-03-11T01:07:14.521Z,9.87
2019-03-11T01:09:46.045Z,8.03
2019-03-11T01:12:18.811Z,8.80
2019-03-11T01:14:50.278Z,7.07
2019-03-11T01:17:21.782Z,6.90
2019-03-11T01:19:54.309Z,5.63
2019-03-11T01:22:25.741Z,5.20
2019-03-11T01:24:57.243Z,3.90
2019-03-11T01:27:28.685Z,2.63
2019-03-11T01:30:00.351Z,1.73
2019-03-11T01:32:31.777Z,2.73
2019-03-11T01:35:03.247Z,3.50
2019-03-11T01:37:34.683Z,2.37
2019-03-11T01:40:07.711Z,3.13
2019-03-11T01:42:39.134Z,3.70
2019-03-11T01:45:14.085Z,4.23
2019-03-11T01:47:45.557Z,4.73
2019-03-11T01:50:17.275Z,3.77
2019-03-11T01:52:49.784Z,5.60
2019-03-11T01:55:21.418Z,5.20
2019-03-11T01:57:52.947Z,5.80
2019-03-11T02:00:24.405Z,4.70
2019-03-11T02:02:55.871Z,6.70
2019-03-11T02:05:27.393Z,6.63
2019-03-11T02:08:02.044Z,7.93
2019-03-11T02:10:34.573Z,7.03
2019-03-11T02:13:06.034Z,6.40
2019-03-11T02:15:37.985Z,6.70
2019-03-11T02:18:09.515Z,5.80
2019-03-11T02:20:40.967Z,6.30
2019-03-11T02:23:12.382Z,5.73
2019-03-11T02:25:43.817Z,5.50
2019-03-11T02:28:16.318Z,6.30
2019-03-11T02:30:47.778Z,6.10
2019-03-11T02:33:19.246Z,6.37
2019-03-11T02:35:52.349Z,6.57
2019-03-11T02:38:23.926Z,7.37
2019-03-11T02:40:55.856Z,6.97
2019-03-11T02:43:27.380Z,7.00
2019-03-11T02:45:58.942Z,6.00
2019-03-11T02:48:30.497Z,6.10
2019-03-11T02:51:02.011Z,6.73
2019-03-11T02:53:33.488Z,5.10
2019-03-11T02:56:05.140Z,6.43
2019-03-11T02:58:37.036Z,5.57
2019-03-11T03:01:36.352Z,5.10
2019-03-11T03:04:12.603Z,5.20
2019-03-11T03:06:44.071Z,5.40
2019-03-11T03:09:16.218Z,3.80
2019-03-11T03:11:47.669Z,3.40
2019-03-11T03:14:19.108Z,3.33
2019-03-11T03:16:50.570Z,2.47
2019-03-11T03:19:23.160Z,3.70
2019-03-11T03:21:54.642Z,3.63
2019-03-11T03:24:26.083Z,3.90
2019-03-11T03:26:57.575Z,3.57
2019-03-11T03:29:29.083Z,4.30
2019-03-11T03:32:00.621Z,3.97
2019-03-11T03:34:34.842Z,5.60
2019-03-11T03:37:06.419Z,5.60
2019-03-11T03:39:37.890Z,5.90
2019-03-11T03:42:13.355Z,6.30
2019-03-11T03:45:14.309Z,8.10
2019-03-11T03:47:45.852Z,6.70
2019-03-11T03:50:17.280Z,9.47
2019-03-11T03:52:48.709Z,9.50
2019-03-11T03:55:20.160Z,9.03
2019-03-11T03:57:51.760Z,10.13
2019-03-11T04:00:23.173Z,6.90
2019-03-11T04:02:54.690Z,10.07
2019-03-11T04:05:26.098Z,8.97
2019-03-11T04:07:57.599Z,8.70
2019-03-11T04:10:32.189Z,9.43
2019-03-11T04:13:02.229Z,8.00
2019-03-11T04:15:33.623Z,8.27
2019-03-11T04:18:10.023Z,7.83
2019-03-11T04:20:42.855Z,6.20
2019-03-11T04:23:14.361Z,5.57
2019-03-11T04:25:45.851Z,5.03
2019-03-11T04:28:17.378Z,5.77
2019-03-11T04:30:48.912Z,5.17
2019-03-11T04:33:20.366Z,4.47
2019-03-11T04:35:51.844Z,6.47
2019-03-11T04:38:23.293Z,4.87
2019-03-11T04:40:54.766Z,5.00
2019-03-11T04:43:26.251Z,4.13
2019-03-11T04:45:57.681Z,4.60
2019-03-11T04:48:29.134Z,4.00
2019-03-11T04:51:00.535Z,3.50
2019-03-11T04:53:31.971Z,3.40
2019-03-11T04:56:03.402Z,4.17
2019-03-11T04:58:34.918Z,3.40
2019-03-11T05:01:06.354Z,2.90
2019-03-11T05:03:37.816Z,3.53
2019-03-11T05:06:09.256Z,2.60
2019-03-11T05:08:40.776Z,2.20
2019-03-11T05:11:12.219Z,2.23
2019-03-11T05:13:43.644Z,2.30
2019-03-11T05:16:15.150Z,3.20
2019-03-11T05:18:46.650Z,2.60
2019-03-11T05:21:18.100Z,2.83
2019-03-11T05:23:49.600Z,2.90
2019-03-11T05:26:22.217Z,3.00
2019-03-11T05:28:54.244Z,2.50
2019-03-11T05:31:25.720Z,3.77
2019-03-11T05:33:57.197Z,3.80
2019-03-11T05:36:28.682Z,3.40
2019-03-11T05:39:01.233Z,3.70
2019-03-11T05:41:34.288Z,3.20
2019-03-11T05:44:05.730Z,3.17
2019-03-11T05:46:37.150Z,3.30
2019-03-11T05:49:08.650Z,3.00
2019-03-11T05:51:40.100Z,3.90
2019-03-11T05:54:11.544Z,4.43
2019-03-11T05:56:42.974Z,3.40
2019-03-11T05:59:14.404Z,3.47
2019-03-11T06:01:45.900Z,4.17
2019-03-11T06:04:17.334Z,3.80
2019-03-11T06:06:48.754Z,3.20
2019-03-11T06:09:20.225Z,4.10
2019-03-11T06:11:51.640Z,2.33
2019-03-11T06:14:23.079Z,3.73
2019-03-11T06:16:54.502Z,3.40
2019-03-11T06:19:25.969Z,3.40
2019-03-11T06:22:16.312Z,3.10
2019-03-11T06:24:47.783Z,3.57
2019-03-11T06:27:19.227Z,3.60
2019-03-11T06:29:50.707Z,2.70
2019-03-11T06:32:22.154Z,3.57
2019-03-11T06:34:53.622Z,3.70
2019-03-11T06:37:25.096Z,4.00
2019-03-11T06:39:56.611Z,3.10
2019-03-11T06:42:29.571Z,3.07
2019-03-11T06:45:01.103Z,4.00
2019-03-11T06:47:33.635Z,3.87
2019-03-11T06:50:05.820Z,4.47
2019-03-11T06:52:37.445Z,4.80
2019-03-11T06:55:09.258Z,3.87
2019-03-11T06:57:40.830Z,4.30
2019-03-11T07:00:14.708Z,4.33
2019-03-11T07:02:46.181Z,4.07
2019-03-11T07:05:20.547Z,3.40
2019-03-11T07:07:50.774Z,3.33
2019-03-11T07:10:22.214Z,3.43
2019-03-11T07:12:53.674Z,3.63
2019-03-11T07:15:26.771Z,2.20
2019-03-11T07:17:58.191Z,3.80
2019-03-11T07:20:29.740Z,3.70
2019-03-11T07:23:01.265Z,2.40
2019-03-11T07:25:32.717Z,2.80
2019-03-11T07:28:05.149Z,3.40
2019-03-11T07:30:36.718Z,3.43
2019-03-11T07:33:08.893Z,2.27
2019-03-11T07:35:40.460Z,3.90
2019-03-11T07:38:12.129Z,4.33
2019-03-11T07:40:43.929Z,3.60
2019-03-11T07:43:15.913Z,2.87
2019-03-11T07:46:06.409Z,5.03
2019-03-11T07:48:37.873Z,3.63
2019-03-11T07:51:09.525Z,3.40
2019-03-11T07:53:41.023Z,2.40
2019-03-11T07:56:12.557Z,3.30
2019-03-11T07:58:44.061Z,2.67
2019-03-11T08:01:15.713Z,2.63
2019-03-11T08:03:47.375Z,3.40
2019-03-11T08:06:20.617Z,3.10
2019-03-11T08:08:52.122Z,3.77
2019-03-11T08:11:23.647Z,3.60
2019-03-11T08:13:55.165Z,4.47
2019-03-11T08:16:26.633Z,4.43
2019-03-11T08:18:58.064Z,3.33
2019-03-11T08:21:30.656Z,2.90
2019-03-11T08:24:02.229Z,2.47
2019-03-11T08:26:33.779Z,3.10
2019-03-11T08:29:05.280Z,3.53
2019-03-11T08:31:36.791Z,3.10
2019-03-11T08:34:08.267Z,2.10
2019-03-11T08:36:40.741Z,3.43
2019-03-11T08:39:12.784Z,2.77
2019-03-11T08:41:44.463Z,4.07
2019-03-11T08:44:16.007Z,3.77
2019-03-11T08:46:47.495Z,3.50
2019-03-11T08:49:18.983Z,3.30
2019-03-11T08:51:50.581Z,4.73
2019-03-11T08:54:22.064Z,3.43
2019-03-11T08:56:56.799Z,5.20
2019-03-11T08:59:28.470Z,3.37
2019-03-11T09:02:00.377Z,3.40
2019-03-11T09:04:32.053Z,2.73
2019-03-11T09:07:03.745Z,2.73
2019-03-11T09:09:35.290Z,3.57
2019-03-11T09:12:06.788Z,4.30
2019-03-11T09:14:38.528Z,2.70
2019-03-11T09:17:10.025Z,3.40
2019-03-11T09:19:41.560Z,4.43
2019-03-11T09:22:13.156Z,2.60
2019-03-11T09:24:44.709Z,3.00
2019-03-11T09:27:16.224Z,2.87
2019-03-11T09:29:47.676Z,3.33
2019-03-11T09:32:19.673Z,2.80
2019-03-11T09:34:51.402Z,3.20
2019-03-11T09:37:23.059Z,4.33
2019-03-11T09:39:54.554Z,4.27
2019-03-11T09:42:26.079Z,4.03
2019-03-11T09:44:57.635Z,4.97
2019-03-11T09:47:29.148Z,4.50
2019-03-11T09:50:02.869Z,4.43
2019-03-11T09:52:34.533Z,3.60
2019-03-11T09:55:07.446Z,3.80
2019-03-11T09:57:39.212Z,4.13
2019-03-11T10:00:20.107Z,3.80
2019-03-11T10:02:53.585Z,3.43
2019-03-11T10:05:25.428Z,3.40
2019-03-11T10:07:57.050Z,3.40
2019-03-11T10:13:27.898Z,3.10
2019-03-11T10:16:36.823Z,2.50
2019-03-11T10:20:07.892Z,2.30
2019-03-11T10:27:11.974Z,3.13
2019-03-11T10:29:48.384Z,3.50
2019-03-11T10:32:20.430Z,3.93
2019-03-11T10:35:01.187Z,4.60
2019-03-11T10:37:33.284Z,3.87
2019-03-11T10:40:05.684Z,3.83
2019-03-11T10:42:45.337Z,3.87
2019-03-11T10:45:26.615Z,3.00
2019-03-11T10:47:54.939Z,2.80
2019-03-11T10:50:26.755Z,2.97
2019-03-11T10:52:58.382Z,3.07
2019-03-11T10:55:29.852Z,3.13
2019-03-11T10:58:01.268Z,3.90
2019-03-11T11:00:32.953Z,3.53
2019-03-11T11:03:04.519Z,2.47
2019-03-11T11:05:36.016Z,2.20
2019-03-11T11:08:08.668Z,2.43
2019-03-11T11:10:40.080Z,2.27
2019-03-11T11:13:11.729Z,2.47
2019-03-11T11:15:43.441Z,2.40
2019-03-11T11:18:14.951Z,2.67
2019-03-11T11:20:46.596Z,2.37
2019-03-11T11:23:18.139Z,2.10
2019-03-11T11:25:49.716Z,2.37
2019-03-11T11:28:21.648Z,2.43
2019-03-11T11:30:56.490Z,2.10
2019-03-11T11:33:28.671Z,1.67
2019-03-11T11:36:00.242Z,1.50
2019-03-11T11:38:31.675Z,1.33
2019-03-11T11:41:03.142Z,1.60
2019-03-11T11:43:34.608Z,2.63
2019-03-11T11:46:09.991Z,2.13
2019-03-11T11:48:41.562Z,1.40
2019-03-11T11:51:13.093Z,1.20
2019-03-11T11:53:44.576Z,1.27
2019-03-11T11:56:23.397Z,2.00
2019-03-11T11:58:55.008Z,1.70
2019-03-11T12:01:26.646Z,1.60
2019-03-11T12:03:59.263Z,2.10
2019-03-11T12:06:31.939Z,2.40
2019-03-11T12:09:06.230Z,2.30
2019-03-11T12:11:39.600Z,2.30
2019-03-11T12:14:11.075Z,1.77
2019-03-11T12:16:42.643Z,2.00
2019-03-11T12:19:14.100Z,2.20
2019-03-11T12:21:45.546Z,3.10
2019-03-11T12:24:17.138Z,3.73
2019-03-11T12:26:48.757Z,3.53
2019-03-11T12:29:20.272Z,4.67
2019-03-11T12:31:51.784Z,3.83
2019-03-11T12:34:23.228Z,5.07
2019-03-11T12:36:55.702Z,5.30
2019-03-11T12:39:27.357Z,4.50
2019-03-11T12:41:58.920Z,4.70
2019-03-11T12:44:30.496Z,3.80
2019-03-11T12:47:02.040Z,2.97
2019-03-11T12:49:34.747Z,3.00
2019-03-11T12:52:06.410Z,3.00
2019-03-11T12:54:37.974Z,2.90
2019-03-11T12:57:10.030Z,2.00
2019-03-11T12:59:41.579Z,2.17
2019-03-11T13:02:13.194Z,2.20
2019-03-11T13:04:44.629Z,1.93
2019-03-11T13:07:16.153Z,2.03
2019-03-11T13:09:47.714Z,1.43
2019-03-11T13:12:19.162Z,1.97
2019-03-11T13:14:50.791Z,2.30
2019-03-11T13:17:22.308Z,2.10
2019-03-11T13:19:55.243Z,1.20
2019-03-11T13:22:26.755Z,1.70
2019-03-11T13:24:58.283Z,1.50
2019-03-11T13:27:32.575Z,1.00
2019-03-11T13:30:06.684Z,1.20
2019-03-11T13:33:12.027Z,1.00
2019-03-11T13:36:06.827Z,1.73
2019-03-11T13:38:39.424Z,1.00
2019-03-11T13:41:18.379Z,1.20
2019-03-11T13:43:50.047Z,1.53
2019-03-11T13:46:24.799Z,1.30
2019-03-11T13:48:57.099Z,1.50
2019-03-11T13:51:31.664Z,1.40
2019-03-11T13:54:13.258Z,2.17
2019-03-11T13:56:45.268Z,2.30
2019-03-11T13:59:18.710Z,2.53
2019-03-11T14:01:52.558Z,3.03
2019-03-11T14:04:27.062Z,3.80
2019-03-11T14:07:00.062Z,5.13
2019-03-11T14:09:32.834Z,3.50
2019-03-11T14:12:04.329Z,5.00
2019-03-11T14:14:35.844Z,4.30
2019-03-11T14:17:07.477Z,2.87
2019-03-11T14:19:39.747Z,2.43
2019-03-11T14:22:13.976Z,2.47
2019-03-11T14:24:46.700Z,1.53
2019-03-11T14:27:20.316Z,1.73
2019-03-11T14:30:12.329Z,1.70
2019-03-11T14:32:44.249Z,1.63
2019-03-11T14:35:21.933Z,1.20
2019-03-11T14:37:55.123Z,1.47
2019-03-11T14:40:26.915Z,1.83
2019-03-11T14:43:05.954Z,1.40
2019-03-11T14:45:39.224Z,1.93
2019-03-11T14:50:58.244Z,2.40
2019-03-11T14:53:29.875Z,1.77
2019-03-11T14:56:02.839Z,1.30
2019-03-11T14:58:54.533Z,1.30
2019-03-11T15:01:27.937Z,1.60
2019-03-11T15:04:02.720Z,1.70
2019-03-11T15:06:34.370Z,1.50
2019-03-11T15:09:07.717Z,1.47
2019-03-11T15:11:39.683Z,1.20
2019-03-11T15:14:11.154Z,1.47
2019-03-11T15:16:44.075Z,1.33
2019-03-11T15:19:15.892Z,1.20
2019-03-11T15:21:57.019Z,1.40
2019-03-11T15:24:29.175Z,1.33
2019-03-11T15:27:01.234Z,1.40
2019-03-11T15:29:45.304Z,1.30
2019-03-11T15:32:18.273Z,1.00
2019-03-11T15:35:00.368Z,1.00
2019-03-11T15:37:32.365Z,1.47
2019-03-11T15:40:04.778Z,1.30
2019-03-11T15:42:36.381Z,1.57
2019-03-11T15:45:38.609Z,2.10
2019-03-11T15:48:07.085Z,2.13
2019-03-11T15:50:44.804Z,2.03
2019-03-11T15:53:28.385Z,2.60
2019-03-11T15:55:59.967Z,2.63
2019-03-11T15:58:31.755Z,3.00
2019-03-11T16:01:03.441Z,3.13
2019-03-11T16:03:36.525Z,3.77
2019-03-11T16:06:08.417Z,3.43
2019-03-11T16:08:45.903Z,4.33
2019-03-11T16:11:23.475Z,4.07
2019-03-11T16:14:03.575Z,3.77
2019-03-11T16:16:37.045Z,3.90
2019-03-11T16:19:09.972Z,3.33
2019-03-11T16:21:42.706Z,3.80
2019-03-11T16:24:15.275Z,3.20
2019-03-11T16:26:47.166Z,3.00
2019-03-11T16:29:49.503Z,2.87
2019-03-11T16:32:22.865Z,2.20
2019-03-11T16:34:54.542Z,4.10
2019-03-11T16:37:26.041Z,2.50
2019-03-11T16:39:58.696Z,2.00
2019-03-11T16:42:30.488Z,1.93
2019-03-11T16:45:03.516Z,2.00
2019-03-11T16:47:35.155Z,1.80
2019-03-11T16:50:08.357Z,1.93
2019-03-11T16:52:39.950Z,2.07
2019-03-11T16:55:13.387Z,2.17
2019-03-11T16:57:44.940Z,2.57
2019-03-11T17:00:20.545Z,2.17
2019-03-11T17:02:52.493Z,2.63
2019-03-11T17:05:24.030Z,2.77
2019-03-11T17:07:55.661Z,2.70
2019-03-11T17:10:27.248Z,2.50
2019-03-11T17:12:59.125Z,1.97
2019-03-11T17:15:30.692Z,2.00
2019-03-11T17:18:02.364Z,2.90
2019-03-11T17:20:33.935Z,2.80
2019-03-11T17:23:05.480Z,2.60
2019-03-11T17:25:37.129Z,2.33
2019-03-11T17:28:10.003Z,2.90
2019-03-11T17:30:41.671Z,3.70
2019-03-11T17:33:13.122Z,3.83
2019-03-11T17:35:44.681Z,3.60
2019-03-11T17:38:18.833Z,3.93
2019-03-11T17:40:54.865Z,3.40
2019-03-11T17:43:28.567Z,5.10
2019-03-11T17:46:00.432Z,4.40
2019-03-11T17:48:32.068Z,5.20
2019-03-11T17:51:03.662Z,5.13
2019-03-11T17:53:35.196Z,4.50
2019-03-11T17:56:06.922Z,5.60
2019-03-11T17:58:38.478Z,5.70
2019-03-11T18:01:10.329Z,6.37
2019-03-11T18:03:41.872Z,4.90
2019-03-11T18:06:13.469Z,6.87
2019-03-11T18:08:45.039Z,7.10
2019-03-11T18:11:16.621Z,6.10
2019-03-11T18:13:48.103Z,5.47
2019-03-11T18:16:19.735Z,6.23
2019-03-11T18:18:51.229Z,6.33
2019-03-11T18:21:22.878Z,6.13
2019-03-11T18:23:54.512Z,5.50
2019-03-11T18:26:28.595Z,6.20
2019-03-11T18:29:00.152Z,5.97
2019-03-11T18:31:31.661Z,7.60
2019-03-11T18:34:03.228Z,6.10
2019-03-11T18:36:34.864Z,5.60
2019-03-11T18:39:09.112Z,5.90
2019-03-11T18:41:42.173Z,5.73
2019-03-11T18:44:13.769Z,4.67
2019-03-11T18:46:45.290Z,4.20
2019-03-11T18:49:17.313Z,5.27
2019-03-11T18:51:48.880Z,5.23
2019-03-11T18:54:20.612Z,5.67
2019-03-11T18:56:52.278Z,4.97
2019-03-11T18:59:23.821Z,5.27
2019-03-11T19:01:56.395Z,5.70
2019-03-11T19:04:28.058Z,5.83
2019-03-11T19:06:59.728Z,7.53
2019-03-11T19:09:32.010Z,6.60
2019-03-11T19:12:04.561Z,6.73
2019-03-11T19:14:36.274Z,7.77
2019-03-11T19:17:09.164Z,8.43
2019-03-11T19:19:46.046Z,7.47
2019-03-11T19:22:14.284Z,8.60
2019-03-11T19:24:49.684Z,7.67
2019-03-11T19:27:22.282Z,7.33
2019-03-11T19:29:53.766Z,8.10
2019-03-11T19:32:25.461Z,8.50
2019-03-11T19:34:57.063Z,9.03
2019-03-11T19:37:28.658Z,7.90
2019-03-11T19:40:00.459Z,6.47
2019-03-11T19:42:34.466Z,7.53
2019-03-11T19:45:06.882Z,7.90
2019-03-11T19:47:38.920Z,7.40
2019-03-11T19:50:12.222Z,7.00
2019-03-11T19:52:43.964Z,7.53
2019-03-11T19:55:15.884Z,8.40
2019-03-11T19:57:47.783Z,6.20
2019-03-11T20:00:20.273Z,7.80
2019-03-11T20:02:52.162Z,7.73
2019-03-11T20:05:25.027Z,9.40
2019-03-11T20:07:56.931Z,9.90
2019-03-11T20:10:28.978Z,10.17
2019-03-11T20:13:00.608Z,9.10
2019-03-11T20:15:33.761Z,9.20
2019-03-11T20:18:05.531Z,10.20
2019-03-11T20:20:37.162Z,11.73
2019-03-11T20:23:08.877Z,10.47
2019-03-11T20:25:40.712Z,10.03
2019-03-11T20:28:12.345Z,10.30
2019-03-11T20:30:45.586Z,9.53
2019-03-11T20:33:17.510Z,9.60
2019-03-11T20:35:49.394Z,7.73
2019-03-11T20:38:21.257Z,7.60
2019-03-11T20:40:52.913Z,8.07
2019-03-11T20:43:28.329Z,5.30
2019-03-11T20:46:00.832Z,6.37
2019-03-11T20:48:32.500Z,6.53
2019-03-11T20:51:04.707Z,6.40
2019-03-11T20:53:36.377Z,5.47
2019-03-11T20:56:07.972Z,4.80
2019-03-11T20:58:39.583Z,4.47
2019-03-11T21:01:14.349Z,4.80
2019-03-11T21:03:48.516Z,4.93
2019-03-11T21:06:22.664Z,5.53
2019-03-11T21:08:54.314Z,4.67
2019-03-11T21:11:29.261Z,4.13
2019-03-11T21:14:01.202Z,3.13
2019-03-11T21:16:33.746Z,2.90
2019-03-11T21:19:05.356Z,4.40
2019-03-11T21:21:37.069Z,3.07
2019-03-11T21:24:08.813Z,4.30
2019-03-11T21:26:40.466Z,3.30
2019-03-11T21:29:12.175Z,3.17
2019-03-11T21:31:47.133Z,2.50
2019-03-11T21:34:18.674Z,4.53
2019-03-11T21:36:52.167Z,2.80
2019-03-11T21:39:23.901Z,2.80
2019-03-11T21:41:55.674Z,3.27
2019-03-11T21:44:27.379Z,3.30
2019-03-11T21:46:59.105Z,3.77
2019-03-11T21:49:30.890Z,3.17
2019-03-11T21:52:02.545Z,2.80
2019-03-11T21:54:34.055Z,3.20
2019-03-11T21:57:05.681Z,4.00
2019-03-11T21:59:37.555Z,4.67
2019-03-11T22:02:09.209Z,3.87
2019-03-11T22:04:41.380Z,4.40
2019-03-11T22:07:15.594Z,4.20
2019-03-11T22:09:49.172Z,4.37
2019-03-11T22:12:20.749Z,3.90
2019-03-11T22:14:52.350Z,3.67
2019-03-11T22:17:29.347Z,4.37
2019-03-11T22:20:01.091Z,3.80
2019-03-11T22:22:32.928Z,3.43
2019-03-11T22:25:04.803Z,5.23
2019-03-11T22:27:36.653Z,3.43
2019-03-11T22:30:14.836Z,4.90
2019-03-11T22:32:46.352Z,4.60
2019-03-11T22:35:17.904Z,4.13
2019-03-11T22:37:50.010Z,3.83
2019-03-11T22:40:23.614Z,4.17
2019-03-11T22:42:55.231Z,3.60
2019-03-11T22:45:26.770Z,3.70
2019-03-11T22:47:58.299Z,3.60
2019-03-11T22:50:29.922Z,3.50
2019-03-11T22:53:01.422Z,3.53
2019-03-11T22:55:32.959Z,3.70
2019-03-11T22:58:04.476Z,3.63
2019-03-11T23:00:53.949Z,4.00
2019-03-11T23:03:26.817Z,3.30
2019-03-11T23:05:59.357Z,3.97
2019-03-11T23:08:30.912Z,3.43
2019-03-11T23:11:02.476Z,4.47
2019-03-11T23:13:34.084Z,3.30
2019-03-11T23:16:10.707Z,2.53
2019-03-11T23:18:48.333Z,3.07
2019-03-11T23:21:19.861Z,3.10
2019-03-11T23:23:51.431Z,3.90
2019-03-11T23:26:22.995Z,3.77
2019-03-11T23:28:54.570Z,3.47
2019-03-11T23:31:26.272Z,4.07
2019-03-11T23:33:57.864Z,3.67
2019-03-11T23:36:29.419Z,3.30
2019-03-11T23:39:00.958Z,4.13
2019-03-11T23:41:34.048Z,4.07
2019-03-11T23:44:05.543Z,4.53
2019-03-11T23:46:37.069Z,4.20
2019-03-11T23:49:08.613Z,4.67
2019-03-11T23:51:40.401Z,4.83
2019-03-11T23:54:12.990Z,5.60
2019-03-11T23:56:47.413Z,5.37
2019-03-11T23:59:19.316Z,4.40
